createdAt,value
2024-01-24T00:00:55.938Z,7.50
2024-01-24T00:03:44.702Z,7.50
2024-01-24T00:06:34.171Z,7.50
2024-01-24T00:09:22.192Z,7.50
2024-01-24T00:12:10.605Z,7.60
2024-01-24T00:14:59.103Z,7.60
2024-01-24T00:17:47.147Z,7.60
2024-01-24T00:20:35.234Z,7.70
2024-01-24T00:23:26.026Z,7.80
2024-01-24T00:26:14.040Z,7.80
2024-01-24T00:29:03.015Z,7.80
2024-01-24T00:31:51.242Z,7.80
2024-01-24T00:34:40.898Z,7.80
2024-01-24T00:37:29.067Z,7.80
2024-01-24T00:40:18.704Z,7.90
2024-01-24T00:43:07.755Z,7.90
2024-01-24T00:45:56.000Z,7.90
2024-01-24T00:48:44.380Z,8.00
2024-01-24T00:51:32.477Z,8.10
2024-01-24T00:54:21.945Z,8.00
2024-01-24T00:57:11.470Z,8.10
2024-01-24T00:59:59.880Z,8.10
2024-01-24T01:02:48.105Z,8.10
2024-01-24T01:05:36.240Z,8.10
2024-01-24T01:08:24.590Z,8.20
2024-01-24T01:11:12.713Z,8.20
2024-01-24T01:14:02.081Z,8.30
2024-01-24T01:16:50.136Z,8.30
2024-01-24T01:19:38.304Z,8.30
2024-01-24T01:22:26.520Z,8.30
2024-01-24T01:25:14.732Z,8.30
2024-01-24T01:28:02.805Z,8.40
2024-01-24T01:30:52.464Z,8.40
2024-01-24T01:33:40.533Z,8.40
2024-01-24T01:36:28.689Z,8.40
2024-01-24T01:39:16.784Z,8.40
2024-01-24T01:42:05.613Z,8.50
2024-01-24T01:44:53.686Z,8.50
2024-01-24T01:47:44.704Z,8.50
2024-01-24T01:50:33.070Z,8.60
2024-01-24T01:53:21.828Z,8.50
2024-01-24T01:56:10.778Z,8.50
2024-01-24T01:58:59.196Z,8.50
2024-01-24T02:01:48.290Z,8.60
2024-01-24T02:04:37.756Z,8.60
2024-01-24T02:07:25.966Z,8.60
2024-01-24T02:10:14.332Z,8.60
2024-01-24T02:13:02.479Z,8.70
2024-01-24T02:15:50.706Z,8.70
2024-01-24T02:18:39.761Z,8.80
2024-01-24T02:21:29.069Z,8.80
2024-01-24T02:24:18.466Z,8.80
2024-01-24T02:27:06.827Z,8.90
2024-01-24T02:29:57.959Z,8.90
2024-01-24T02:32:46.013Z,8.90
2024-01-24T02:35:34.055Z,8.90
2024-01-24T02:38:22.014Z,8.90
2024-01-24T02:41:11.457Z,8.90
2024-01-24T02:43:59.415Z,8.90
2024-01-24T02:46:47.354Z,8.90
2024-01-24T02:49:35.471Z,9.00
2024-01-24T02:52:23.522Z,9.00
2024-01-24T02:55:16.164Z,9.00
2024-01-24T02:58:05.687Z,9.10
2024-01-24T03:00:53.899Z,9.10
2024-01-24T03:03:42.243Z,9.10
2024-01-24T03:06:30.334Z,9.20
2024-01-24T03:09:18.373Z,9.20
2024-01-24T03:12:06.918Z,9.20
2024-01-24T03:14:56.182Z,9.20
2024-01-24T03:17:44.477Z,9.30
2024-01-24T03:20:33.151Z,9.30
2024-01-24T03:23:21.653Z,9.40
2024-01-24T03:26:10.129Z,9.40
2024-01-24T03:28:58.374Z,9.40
2024-01-24T03:31:47.724Z,9.40
2024-01-24T03:34:35.744Z,9.50
2024-01-24T03:37:23.769Z,9.50
2024-01-24T03:40:12.616Z,9.50
2024-01-24T03:43:00.619Z,9.60
2024-01-24T03:45:48.744Z,9.60
2024-01-24T03:48:38.161Z,9.70
2024-01-24T03:51:26.642Z,9.70
2024-01-24T03:54:14.722Z,9.70
2024-01-24T03:57:02.783Z,9.70
2024-01-24T03:59:50.816Z,9.80
2024-01-24T04:02:38.796Z,9.80
2024-01-24T04:05:28.134Z,9.80
2024-01-24T04:08:16.133Z,9.90
2024-01-24T04:11:04.248Z,9.90
2024-01-24T04:13:54.586Z,9.80
2024-01-24T04:16:42.699Z,9.90
2024-01-24T04:19:30.980Z,9.90
2024-01-24T04:22:21.158Z,9.90
2024-01-24T04:25:09.752Z,10.00
2024-01-24T04:27:58.672Z,10.00
2024-01-24T04:30:46.814Z,10.10
2024-01-24T04:33:35.190Z,10.10
2024-01-24T04:36:23.451Z,10.20
2024-01-24T04:39:12.951Z,10.20
2024-01-24T04:42:08.483Z,10.30
2024-01-24T04:45:00.287Z,10.30
2024-01-24T04:47:48.378Z,10.30
2024-01-24T04:50:36.886Z,10.40
2024-01-24T04:53:25.736Z,10.40
2024-01-24T04:56:15.239Z,10.40
2024-01-24T04:59:03.227Z,10.50
2024-01-24T05:01:51.356Z,10.50
2024-01-24T05:04:39.351Z,10.50
2024-01-24T05:07:27.465Z,10.60
2024-01-24T05:10:17.329Z,10.60
2024-01-24T05:13:06.736Z,10.60
2024-01-24T05:15:54.806Z,10.70
2024-01-24T05:18:42.950Z,10.70
2024-01-24T05:21:31.036Z,10.70
2024-01-24T05:24:19.156Z,10.80
2024-01-24T05:27:07.279Z,10.90
2024-01-24T05:29:56.757Z,11.00
2024-01-24T05:32:44.792Z,11.00
2024-01-24T05:35:34.253Z,11.10
2024-01-24T05:38:23.001Z,11.10
2024-01-24T05:41:11.236Z,11.00
2024-01-24T05:43:59.279Z,11.00
2024-01-24T05:46:48.626Z,11.00
2024-01-24T05:49:37.966Z,11.00
2024-01-24T05:52:26.113Z,11.00
2024-01-24T05:55:14.413Z,11.00
2024-01-24T05:58:02.896Z,11.00
2024-01-24T06:00:51.345Z,11.00
2024-01-24T06:03:42.274Z,11.00
2024-01-24T06:06:30.425Z,11.00
2024-01-24T06:09:20.155Z,10.90
2024-01-24T06:12:08.943Z,10.90
2024-01-24T06:14:57.148Z,10.90
2024-01-24T06:17:45.186Z,11.00
2024-01-24T06:20:34.937Z,10.90
2024-01-24T06:23:22.907Z,10.80
2024-01-24T06:26:11.306Z,10.80
2024-01-24T06:28:59.459Z,10.80
2024-01-24T06:31:48.101Z,10.80
2024-01-24T06:34:36.218Z,10.90
2024-01-24T06:37:25.559Z,10.80
2024-01-24T06:40:15.545Z,10.70
2024-01-24T06:43:03.675Z,10.80
2024-01-24T06:45:51.784Z,10.70
2024-01-24T06:48:40.139Z,10.70
2024-01-24T06:51:28.242Z,10.80
2024-01-24T06:54:17.824Z,10.70
2024-01-24T06:57:06.453Z,10.70
2024-01-24T06:59:54.628Z,10.70
2024-01-24T07:02:42.646Z,10.80
2024-01-24T07:05:30.971Z,10.70
2024-01-24T07:08:18.975Z,10.70
2024-01-24T07:11:08.689Z,10.60
2024-01-24T07:13:56.766Z,10.60
2024-01-24T07:16:46.057Z,10.60
2024-01-24T07:19:34.203Z,10.60
2024-01-24T07:22:22.342Z,10.60
2024-01-24T07:25:10.855Z,10.60
2024-01-24T07:28:00.374Z,10.60
2024-01-24T07:30:48.547Z,10.60
2024-01-24T07:33:36.730Z,10.50
2024-01-24T07:36:24.933Z,10.50
2024-01-24T07:39:12.979Z,10.50
2024-01-24T07:42:01.035Z,10.50
2024-01-24T07:44:50.812Z,10.40
2024-01-24T07:47:39.826Z,10.40
2024-01-24T07:50:28.632Z,10.40
2024-01-24T07:53:17.057Z,10.40
2024-01-24T07:56:11.583Z,10.40
2024-01-24T07:59:09.425Z,10.40
2024-01-24T08:01:59.946Z,10.40
2024-01-24T08:04:48.149Z,10.40
2024-01-24T08:07:38.166Z,10.20
2024-01-24T08:10:26.432Z,10.20
2024-01-24T08:13:15.387Z,10.20
2024-01-24T08:16:03.890Z,10.20
2024-01-24T08:18:54.836Z,10.20
2024-01-24T08:21:43.348Z,10.10
2024-01-24T08:24:31.510Z,10.10
2024-01-24T08:27:19.899Z,10.00
2024-01-24T08:30:08.975Z,9.90
2024-01-24T08:32:57.238Z,9.90
2024-01-24T08:35:46.554Z,9.80
2024-01-24T08:38:34.665Z,9.60
2024-01-24T08:41:22.824Z,9.60
2024-01-24T08:44:11.148Z,9.50
2024-01-24T08:46:59.265Z,9.50
2024-01-24T08:49:47.491Z,9.50
2024-01-24T08:52:37.150Z,9.50
2024-01-24T08:55:25.695Z,9.50
2024-01-24T08:58:14.151Z,9.50
2024-01-24T09:01:02.729Z,9.50
2024-01-24T09:03:51.204Z,9.60
2024-01-24T09:06:40.144Z,9.60
2024-01-24T09:09:31.857Z,9.50
2024-01-24T09:12:20.347Z,9.40
2024-01-24T09:15:09.448Z,9.30
2024-01-24T09:17:57.578Z,9.30
2024-01-24T09:20:45.960Z,9.20
2024-01-24T09:23:34.290Z,9.20
2024-01-24T09:26:24.154Z,9.10
2024-01-24T09:29:14.147Z,9.10
2024-01-24T09:32:02.284Z,9.00
2024-01-24T09:34:50.820Z,9.10
2024-01-24T09:37:39.011Z,9.20
2024-01-24T09:40:27.174Z,9.20
2024-01-24T09:43:18.036Z,9.20
2024-01-24T09:46:10.924Z,9.20
2024-01-24T09:49:00.230Z,9.30
2024-01-24T09:51:50.325Z,9.30
2024-01-24T09:54:39.596Z,9.30
2024-01-24T09:57:28.941Z,9.40
2024-01-24T10:00:19.022Z,9.30
2024-01-24T10:03:07.258Z,9.30
2024-01-24T10:05:56.938Z,9.20
2024-01-24T10:08:45.181Z,9.20
2024-01-24T10:11:33.299Z,9.30
2024-01-24T10:14:21.649Z,9.30
2024-01-24T10:17:12.150Z,9.30
2024-01-24T10:20:01.094Z,9.40
2024-01-24T10:22:51.368Z,9.30
2024-01-24T10:25:42.580Z,9.30
2024-01-24T10:28:30.991Z,9.30
2024-01-24T10:31:20.533Z,9.30
2024-01-24T10:34:10.602Z,9.30
2024-01-24T10:37:01.072Z,9.30
2024-01-24T10:39:53.118Z,9.40
2024-01-24T10:42:44.130Z,9.40
2024-01-24T10:45:34.411Z,9.50
2024-01-24T10:48:22.769Z,9.50
2024-01-24T10:51:13.581Z,9.50
2024-01-24T10:54:04.191Z,9.50
2024-01-24T10:56:52.934Z,9.40
2024-01-24T10:59:42.883Z,9.50
2024-01-24T11:02:30.957Z,9.50
2024-01-24T11:05:24.093Z,9.60
2024-01-24T11:08:21.414Z,9.60
2024-01-24T11:11:14.285Z,9.50
2024-01-24T11:14:02.928Z,9.60
2024-01-24T11:16:51.132Z,9.60
2024-01-24T11:19:39.730Z,9.60
2024-01-24T11:22:30.724Z,9.50
2024-01-24T11:25:39.637Z,9.50
2024-01-24T11:28:28.039Z,9.50
2024-01-24T11:31:16.844Z,9.50
2024-01-24T11:34:08.874Z,9.60
2024-01-24T11:36:57.964Z,9.50
2024-01-24T11:39:46.548Z,9.60
2024-01-24T11:42:44.338Z,9.70
2024-01-24T11:45:33.374Z,9.70
2024-01-24T11:48:22.092Z,9.70
2024-01-24T11:51:11.807Z,9.70
2024-01-24T11:54:02.363Z,9.70
2024-01-24T11:56:50.629Z,9.70
2024-01-24T11:59:40.035Z,9.70
2024-01-24T12:02:28.081Z,9.70
2024-01-24T12:05:18.453Z,9.70
2024-01-24T12:08:09.423Z,9.60
2024-01-24T12:10:57.513Z,9.60
2024-01-24T12:13:45.704Z,9.60
2024-01-24T12:16:35.231Z,9.60
2024-01-24T12:19:24.006Z,9.70
2024-01-24T12:22:13.184Z,9.70
2024-01-24T12:25:02.149Z,9.70
2024-01-24T12:27:51.371Z,9.70
2024-01-24T12:30:40.499Z,9.70
2024-01-24T12:33:35.988Z,9.80
2024-01-24T12:36:25.404Z,10.00
2024-01-24T12:39:13.703Z,9.90
2024-01-24T12:42:02.566Z,10.00
2024-01-24T12:44:55.504Z,9.90
2024-01-24T12:47:44.920Z,9.90
2024-01-24T12:50:34.567Z,10.00
2024-01-24T12:53:23.699Z,9.90
2024-01-24T12:56:11.996Z,9.90
2024-01-24T12:59:00.329Z,9.90
2024-01-24T13:01:48.673Z,9.90
2024-01-24T13:04:36.951Z,9.90
2024-01-24T13:07:27.135Z,9.80
2024-01-24T13:10:15.326Z,9.80
2024-01-24T13:13:03.542Z,9.70
2024-01-24T13:15:54.599Z,9.70
2024-01-24T13:18:43.576Z,9.60
2024-01-24T13:21:31.696Z,9.70
2024-01-24T13:24:22.654Z,9.70
2024-01-24T13:27:10.922Z,9.70
2024-01-24T13:29:59.250Z,9.70
2024-01-24T13:32:47.536Z,9.70
2024-01-24T13:35:36.287Z,9.70
2024-01-24T13:38:25.495Z,9.60
2024-01-24T13:41:15.751Z,9.60
2024-01-24T13:44:05.170Z,9.60
2024-01-24T13:46:53.494Z,9.60
2024-01-24T13:49:44.249Z,9.50
2024-01-24T13:52:32.774Z,9.50
2024-01-24T13:55:20.946Z,9.40
2024-01-24T13:58:10.624Z,9.40
2024-01-24T14:01:01.547Z,9.40
2024-01-24T14:03:50.756Z,9.40
2024-01-24T14:06:39.365Z,9.40
2024-01-24T14:09:27.844Z,9.40
2024-01-24T14:12:16.226Z,9.30
2024-01-24T14:15:15.348Z,9.40
2024-01-24T14:18:13.224Z,9.30
2024-01-24T14:21:01.273Z,9.30
2024-01-24T14:23:49.275Z,9.30
2024-01-24T14:26:37.709Z,9.30
2024-01-24T14:29:25.768Z,9.30
2024-01-24T14:32:15.816Z,9.20
2024-01-24T14:35:04.069Z,9.20
2024-01-24T14:37:52.372Z,9.20
2024-01-24T14:40:40.611Z,9.20
2024-01-24T14:43:28.656Z,9.20
2024-01-24T14:46:16.717Z,9.20
2024-01-24T14:49:06.221Z,9.20
2024-01-24T14:51:55.104Z,9.10
2024-01-24T14:54:43.236Z,9.10
2024-01-24T14:57:33.944Z,9.10
2024-01-24T15:00:22.435Z,9.10
2024-01-24T15:03:10.785Z,9.10
2024-01-24T15:06:00.135Z,9.00
2024-01-24T15:08:48.143Z,9.10
2024-01-24T15:11:36.916Z,9.00
2024-01-24T15:14:25.177Z,9.00
2024-01-24T15:17:13.305Z,9.00
2024-01-24T15:20:02.144Z,9.00
2024-01-24T15:22:53.292Z,9.00
2024-01-24T15:25:41.480Z,8.90
2024-01-24T15:28:30.340Z,8.90
2024-01-24T15:31:19.154Z,8.90
2024-01-24T15:34:08.089Z,8.90
2024-01-24T15:36:57.508Z,8.90
2024-01-24T15:39:48.884Z,8.90
2024-01-24T15:42:42.941Z,8.90
2024-01-24T15:45:32.840Z,8.90
2024-01-24T15:48:20.974Z,8.90
2024-01-24T15:51:09.707Z,8.90
2024-01-24T15:53:57.803Z,8.80
2024-01-24T15:56:47.571Z,8.80
2024-01-24T15:59:36.305Z,8.90
2024-01-24T16:02:24.624Z,8.90
2024-01-24T16:05:25.854Z,8.80
2024-01-24T16:08:15.274Z,8.80
2024-01-24T16:11:04.080Z,8.80
2024-01-24T16:13:53.493Z,8.80
2024-01-24T16:16:41.766Z,8.90
2024-01-24T16:19:30.523Z,8.80
2024-01-24T16:22:23.884Z,8.80
2024-01-24T16:25:18.067Z,8.80
2024-01-24T16:28:06.706Z,8.80
2024-01-24T16:30:56.141Z,8.80
2024-01-24T16:33:44.466Z,8.80
2024-01-24T16:36:32.898Z,8.80
2024-01-24T16:39:20.976Z,8.80
2024-01-24T16:42:09.319Z,8.80
2024-01-24T16:44:57.769Z,8.80
2024-01-24T16:47:47.253Z,8.80
2024-01-24T16:50:35.617Z,8.70
2024-01-24T16:53:24.227Z,8.70
2024-01-24T16:56:12.233Z,8.80
2024-01-24T16:59:00.237Z,8.80
2024-01-24T17:01:48.274Z,8.70
2024-01-24T17:04:38.152Z,8.70
2024-01-24T17:07:26.429Z,8.80
2024-01-24T17:10:15.648Z,8.70
2024-01-24T17:13:03.916Z,8.70
2024-01-24T17:15:52.203Z,8.70
2024-01-24T17:18:40.367Z,8.60
2024-01-24T17:21:29.761Z,8.60
2024-01-24T17:24:18.215Z,8.60
2024-01-24T17:27:07.069Z,8.60
2024-01-24T17:29:55.191Z,8.70
2024-01-24T17:32:43.752Z,8.70
2024-01-24T17:35:34.779Z,8.70
2024-01-24T17:38:24.875Z,8.70
2024-01-24T17:41:16.060Z,8.70
2024-01-24T17:44:04.793Z,8.70
2024-01-24T17:46:53.330Z,8.70
2024-01-24T17:49:41.525Z,8.60
2024-01-24T17:52:30.009Z,8.60
2024-01-24T17:55:19.514Z,8.60
2024-01-24T17:58:08.283Z,8.60
2024-01-24T18:00:56.856Z,8.60
2024-01-24T18:03:44.976Z,8.60
2024-01-24T18:06:33.169Z,8.60
2024-01-24T18:09:21.332Z,8.60
2024-01-24T18:12:11.369Z,8.60
2024-01-24T18:14:59.861Z,8.50
2024-01-24T18:17:47.893Z,8.50
2024-01-24T18:20:36.064Z,8.60
2024-01-24T18:23:24.251Z,8.60
2024-01-24T18:26:12.251Z,8.50
2024-01-24T18:29:02.003Z,8.50
2024-01-24T18:31:50.005Z,8.50
2024-01-24T18:34:39.300Z,8.50
2024-01-24T18:37:29.839Z,8.50
2024-01-24T18:40:18.513Z,8.50
2024-01-24T18:43:06.871Z,8.50
2024-01-24T18:45:56.432Z,8.50
2024-01-24T18:48:46.430Z,8.50
2024-01-24T18:51:34.927Z,8.50
2024-01-24T18:54:23.239Z,8.50
2024-01-24T18:57:12.832Z,8.50
2024-01-24T19:00:02.004Z,8.50
2024-01-24T19:02:52.718Z,8.50
2024-01-24T19:05:41.492Z,8.50
2024-01-24T19:08:33.452Z,8.50
2024-01-24T19:11:21.777Z,8.50
2024-01-24T19:14:09.811Z,8.50
2024-01-24T19:16:57.959Z,8.50
2024-01-24T19:19:48.227Z,8.50
2024-01-24T19:22:36.380Z,8.40
2024-01-24T19:25:24.304Z,8.40
2024-01-24T19:28:12.479Z,8.40
2024-01-24T19:31:03.822Z,8.40
2024-01-24T19:33:52.193Z,8.40
2024-01-24T19:36:42.366Z,8.40
2024-01-24T19:39:30.430Z,8.40
2024-01-24T19:42:23.424Z,8.40
2024-01-24T19:45:12.611Z,8.40
2024-01-24T19:48:01.109Z,8.40
2024-01-24T19:50:49.427Z,8.40
2024-01-24T19:53:40.840Z,8.40
2024-01-24T19:56:29.012Z,8.40
2024-01-24T19:59:17.034Z,8.40
2024-01-24T20:02:05.425Z,8.30
2024-01-24T20:04:53.888Z,8.30
2024-01-24T20:07:42.135Z,8.40
2024-01-24T20:10:31.686Z,8.30
2024-01-24T20:13:20.154Z,8.30
2024-01-24T20:16:09.144Z,8.30
2024-01-24T20:18:57.913Z,8.30
2024-01-24T20:21:46.016Z,8.30
2024-01-24T20:24:34.194Z,8.30
2024-01-24T20:27:23.625Z,8.30
2024-01-24T20:30:12.311Z,8.30
2024-01-24T20:33:04.352Z,8.20
2024-01-24T20:35:54.421Z,8.20
2024-01-24T20:38:42.778Z,8.20
2024-01-24T20:41:31.287Z,8.20
2024-01-24T20:44:21.049Z,8.30
2024-01-24T20:47:10.000Z,8.30
2024-01-24T20:49:58.649Z,8.30
2024-01-24T20:52:46.807Z,8.30
2024-01-24T20:55:35.078Z,8.20
2024-01-24T20:58:23.287Z,8.20
2024-01-24T21:01:13.360Z,8.20
2024-01-24T21:04:01.818Z,8.20
2024-01-24T21:06:50.110Z,8.20
2024-01-24T21:09:39.639Z,8.30
2024-01-24T21:12:27.966Z,8.20
2024-01-24T21:15:16.204Z,8.20
2024-01-24T21:18:06.037Z,8.20
2024-01-24T21:20:54.305Z,8.20
2024-01-24T21:23:42.622Z,8.20
2024-01-24T21:26:30.646Z,8.30
2024-01-24T21:29:18.701Z,8.20
2024-01-24T21:32:07.137Z,8.20
2024-01-24T21:34:57.376Z,8.20
2024-01-24T21:37:46.108Z,8.20
2024-01-24T21:40:34.197Z,8.20
2024-01-24T21:43:22.554Z,8.30
2024-01-24T21:46:10.795Z,8.20
2024-01-24T21:48:58.899Z,8.20
2024-01-24T21:51:48.303Z,8.20
2024-01-24T21:54:36.327Z,8.20
2024-01-24T21:57:24.387Z,8.20
2024-01-24T22:00:14.211Z,8.20
2024-01-24T22:03:02.422Z,8.20
2024-01-24T22:05:50.467Z,8.20
2024-01-24T22:08:40.996Z,8.20
2024-01-24T22:11:29.168Z,8.20
2024-01-24T22:14:17.136Z,8.20
2024-01-24T22:17:05.555Z,8.20
2024-01-24T22:19:53.531Z,8.20
2024-01-24T22:25:32.125Z,8.20
2024-01-24T22:28:20.485Z,8.20
2024-01-24T22:31:08.871Z,8.20
2024-01-24T22:33:57.276Z,8.20
2024-01-24T22:36:45.458Z,8.20
2024-01-24T22:39:33.489Z,8.20
2024-01-24T22:42:23.031Z,8.10
2024-01-24T22:45:15.035Z,8.20
2024-01-24T22:48:03.142Z,8.10
2024-01-24T22:50:51.200Z,8.10
2024-01-24T22:53:39.629Z,8.10
2024-01-24T22:56:27.897Z,8.00
2024-01-24T22:59:17.243Z,8.00
2024-01-24T23:02:06.560Z,8.00
2024-01-24T23:04:56.932Z,8.00
2024-01-24T23:07:45.293Z,7.90
2024-01-24T23:10:33.414Z,8.00
2024-01-24T23:13:21.632Z,7.90
2024-01-24T23:16:11.232Z,7.90
2024-01-24T23:18:59.393Z,7.90
2024-01-24T23:21:47.611Z,7.90
2024-01-24T23:24:35.637Z,7.90
2024-01-24T23:27:23.625Z,7.80
2024-01-24T23:30:12.140Z,7.80
2024-01-24T23:33:02.012Z,7.80
2024-01-24T23:35:50.050Z,7.80
2024-01-24T23:38:38.219Z,7.80
2024-01-24T23:41:26.227Z,7.70
2024-01-24T23:44:14.364Z,7.80
2024-01-24T23:47:02.464Z,7.70
2024-01-24T23:49:51.999Z,7.70
2024-01-24T23:52:40.220Z,7.70
2024-01-24T23:55:28.481Z,7.60
2024-01-24T23:58:16.621Z,7.60
